Excello, MO (65247)

11:03 AM CDT on June 03, 2015 (GMT -0500)
At Moberly | | Change Station
CLOSE
Current Station
Personal Weather Station
Location: Moberly, MO
Elevation: 853 ft
Nearby Weather Stations

Elev 853 ft 39.46 °N, 92.40 °W | Updated 2 minutes ago

Overcast
Overcast
65.4 °F
Feels Like 65.4 °F
N
1.0
Wind Variable Wind from South
Gusts 6.0 mph

Today
High -- | Low -- °F
--% Chance of Precip.
Yesterday
High -- | Low -- °F
Precip. -- in
5:43 AM 8:32 PM
Full, 99% visible
Pressure 30.03 in
Visibility 5.0 miles
Clouds Few 1400 ft
Mostly Cloudy 2300 ft
Overcast 2800 ft
Dew Point 61 °F
Humidity 86%
Rainfall 0.00 in
Snow Depth Not available.
UV 3 out of 12
Pollen 7.80 out of 12
Air Quality Not available.
Flu Activity Sporadic
METAR KIRK 031555Z AUTO 24004KT 5SM -RA BR FEW014 BKN023 OVC028 17/16 A3003 RMK AO2 LTG DSNT NW RAB33 SLP169 P0003 T01670161

More Conditions Fewer Conditions

Pressure 30.03 in
Visibility 5.0 miles
Clouds Few 1400 ft
Mostly Cloudy 2300 ft
Overcast 2800 ft
Dew Point 61 °F
Humidity 86%
Rainfall 0.00 in
Snow Depth Not available.
UV 3 out of 12
Pollen 7.80 out of 12
Air Quality Not available.
Flu Activity Sporadic
METAR KIRK 031555Z AUTO 24004KT 5SM -RA BR FEW014 BKN023 OVC028 17/16 A3003 RMK AO2 LTG DSNT NW RAB33 SLP169 P0003 T01670161

More Conditions Fewer Conditions

10-Day Weather Forecast

×

Almanac

Astronomy

Jun. 03, 2015 Rise Set
Actual Time
Civil Twilight
Nautical Twilight
Astronomical Twilight
Moon
Length of Visible Light
Length of Day
Tomorrow will be .
, % of the Moon is Illuminated

Today's Extremes

State Highs State Lows

Community

WunderPhotos

Upload Photos

1,826,245 photos uploaded!

WunderBlogs® & News

Nearby

Air Quality

  Air Quality AQ Index Pollutant
Not available.

Snow Depth

Station Depth Elevation

Earthquake Activity

City Distance Mag. Time & Date
Minimum magnitude displayed is 2.5.

Coastal Water Temperatures

Place Temperature

Stations

Nearby Weather Stations

Station Location Temp. Windchill Dew Point Humidity Wind Precip. Elev Updated Type